createdAt,value
2022-09-23T00:02:16.840Z,16.70
2022-09-23T00:04:44.738Z,16.70
2022-09-23T00:07:16.696Z,16.80
2022-09-23T00:09:44.884Z,16.80
2022-09-23T00:12:12.691Z,16.70
2022-09-23T00:14:48.389Z,16.80
2022-09-23T00:17:20.742Z,16.90
2022-09-23T00:19:48.720Z,16.90
2022-09-23T00:22:17.435Z,17.00
2022-09-23T00:24:51.253Z,16.90
2022-09-23T00:27:22.684Z,17.00
2022-09-23T00:29:50.474Z,17.00
2022-09-23T00:32:20.363Z,17.00
2022-09-23T00:34:52.123Z,17.00
2022-09-23T00:37:22.506Z,16.90
2022-09-23T00:39:57.030Z,16.90
2022-09-23T00:42:26.738Z,17.00
2022-09-23T00:45:01.348Z,17.00
2022-09-23T00:47:35.265Z,16.80
2022-09-23T00:50:10.080Z,16.80
2022-09-23T00:52:38.542Z,16.70
2022-09-23T00:55:09.724Z,16.80
2022-09-23T00:57:43.115Z,16.70
2022-09-23T01:00:12.267Z,16.70
2022-09-23T01:02:40.632Z,16.80
2022-09-23T01:05:11.070Z,16.70
2022-09-23T01:07:38.912Z,16.40
2022-09-23T01:10:09.569Z,16.40
2022-09-23T01:13:02.236Z,16.40
2022-09-23T01:15:40.093Z,16.50
2022-09-23T01:18:16.954Z,16.30
2022-09-23T01:20:59.132Z,16.50
2022-09-23T01:23:49.585Z,16.50
2022-09-23T01:26:42.219Z,16.40
2022-09-23T01:29:30.201Z,16.20
2022-09-23T01:32:03.887Z,16.30
2022-09-23T01:34:51.290Z,16.00
2022-09-23T01:37:28.749Z,15.80
2022-09-23T01:40:04.489Z,15.80
2022-09-23T01:42:40.455Z,15.60
2022-09-23T01:45:12.631Z,15.50
2022-09-23T01:47:48.336Z,15.50
2022-09-23T01:50:49.820Z,15.50
2022-09-23T01:53:28.414Z,15.60
2022-09-23T01:56:02.793Z,15.50
2022-09-23T01:58:49.444Z,15.50
2022-09-23T02:01:27.491Z,15.50
2022-09-23T02:04:04.466Z,15.50
2022-09-23T02:06:38.868Z,15.50
2022-09-23T02:09:10.159Z,15.60
2022-09-23T02:11:45.291Z,15.50
2022-09-23T02:14:33.283Z,15.60
2022-09-23T02:17:08.397Z,15.50
2022-09-23T02:19:46.454Z,15.60
2022-09-23T02:22:19.120Z,15.60
2022-09-23T02:24:48.314Z,15.70
2022-09-23T02:27:27.320Z,15.80
2022-09-23T02:29:59.003Z,15.90
2022-09-23T02:32:39.720Z,16.00
2022-09-23T02:35:27.294Z,15.90
2022-09-23T02:38:02.393Z,15.70
2022-09-23T02:40:38.165Z,15.60
2022-09-23T02:43:11.673Z,15.50
2022-09-23T02:45:42.851Z,15.40
2022-09-23T02:48:15.660Z,15.60
2022-09-23T02:50:44.822Z,15.60
2022-09-23T02:53:19.374Z,15.50
2022-09-23T02:55:50.958Z,15.50
2022-09-23T02:58:18.864Z,15.50
2022-09-23T03:00:58.598Z,15.60
2022-09-23T03:03:40.583Z,15.70
2022-09-23T03:06:17.374Z,15.70
2022-09-23T03:08:58.782Z,15.70
2022-09-23T03:11:29.399Z,15.70
2022-09-23T03:14:18.895Z,15.90
2022-09-23T03:16:54.256Z,15.90
2022-09-23T03:19:31.119Z,15.90
2022-09-23T03:22:16.163Z,15.90
2022-09-23T03:24:53.169Z,16.00
2022-09-23T03:27:29.407Z,16.00
2022-09-23T03:30:03.223Z,16.10
2022-09-23T03:32:47.373Z,16.10
2022-09-23T03:35:16.062Z,16.10
2022-09-23T03:37:51.800Z,15.90
2022-09-23T03:40:27.455Z,15.80
2022-09-23T03:42:56.283Z,15.80
2022-09-23T03:45:27.984Z,15.80
2022-09-23T03:47:55.825Z,16.00
2022-09-23T03:50:23.650Z,16.10
2022-09-23T03:52:53.222Z,16.00
2022-09-23T03:55:21.180Z,16.20
2022-09-23T03:57:57.118Z,16.30
2022-09-23T04:00:32.775Z,16.30
2022-09-23T04:03:01.012Z,16.40
2022-09-23T04:05:28.909Z,16.30
2022-09-23T04:07:58.078Z,16.20
2022-09-23T04:10:26.289Z,16.30
2022-09-23T04:12:54.090Z,16.30
2022-09-23T04:15:24.466Z,16.40
2022-09-23T04:17:52.271Z,16.30
2022-09-23T04:20:20.504Z,16.20
2022-09-23T04:22:48.724Z,16.30
2022-09-23T04:25:18.040Z,16.00
2022-09-23T04:27:48.251Z,16.10
2022-09-23T04:30:17.105Z,16.20
2022-09-23T04:32:44.883Z,16.10
2022-09-23T04:35:12.672Z,16.00
2022-09-23T04:37:40.632Z,15.80
2022-09-23T04:40:09.939Z,15.70
2022-09-23T04:42:39.111Z,15.80
2022-09-23T04:45:08.184Z,15.80
2022-09-23T04:47:36.176Z,15.80
2022-09-23T04:50:04.231Z,15.80
2022-09-23T04:52:32.174Z,15.90
2022-09-23T04:55:03.029Z,16.00
2022-09-23T04:57:31.240Z,15.90
2022-09-23T05:00:00.379Z,16.00
2022-09-23T05:02:39.661Z,15.80
2022-09-23T05:05:08.150Z,15.60
2022-09-23T05:07:36.558Z,15.50
2022-09-23T05:10:07.172Z,15.50
2022-09-23T05:12:35.016Z,15.40
2022-09-23T05:15:07.666Z,15.60
2022-09-23T05:17:37.148Z,15.80
2022-09-23T05:20:05.879Z,15.80
2022-09-23T05:22:33.899Z,15.70
2022-09-23T05:25:02.312Z,15.70
2022-09-23T05:27:38.839Z,15.80
2022-09-23T05:30:15.889Z,15.80
2022-09-23T05:32:44.121Z,15.80
2022-09-23T05:35:12.016Z,15.70
2022-09-23T05:37:39.837Z,15.80
2022-09-23T05:40:08.520Z,15.90
2022-09-23T05:42:36.379Z,15.90
2022-09-23T05:45:04.297Z,16.00
2022-09-23T05:47:34.031Z,16.00
2022-09-23T05:50:01.820Z,16.10
2022-09-23T05:52:30.090Z,16.20
2022-09-23T05:54:57.884Z,16.20
2022-09-23T05:57:33.106Z,16.10
2022-09-23T06:00:05.080Z,16.20
2022-09-23T06:02:36.898Z,16.00
2022-09-23T06:05:08.673Z,16.10
2022-09-23T06:07:38.003Z,16.00
2022-09-23T06:10:09.011Z,16.10
2022-09-23T06:12:46.729Z,16.00
2022-09-23T06:15:14.695Z,16.00
2022-09-23T06:17:44.269Z,16.10
2022-09-23T06:20:12.087Z,16.20
2022-09-23T06:22:40.490Z,16.30
2022-09-23T06:25:16.711Z,16.20
2022-09-23T06:27:44.864Z,16.30
2022-09-23T06:30:17.217Z,16.20
2022-09-23T06:32:51.957Z,16.20
2022-09-23T06:35:27.219Z,16.10
2022-09-23T06:37:55.917Z,16.00
2022-09-23T06:40:27.240Z,16.10
2022-09-23T06:42:59.487Z,16.20
2022-09-23T06:45:28.401Z,16.10
2022-09-23T06:47:59.014Z,15.90
2022-09-23T06:50:30.877Z,15.60
2022-09-23T06:52:59.893Z,15.60
2022-09-23T06:55:28.401Z,15.60
2022-09-23T06:58:05.454Z,15.80
2022-09-23T07:00:33.630Z,15.70
2022-09-23T07:03:05.748Z,15.60
2022-09-23T07:05:33.962Z,15.50
2022-09-23T07:08:08.292Z,15.60
2022-09-23T07:10:36.349Z,15.50
2022-09-23T07:13:16.156Z,15.70
2022-09-23T07:15:50.005Z,15.90
2022-09-23T07:18:19.736Z,16.20
2022-09-23T07:20:48.233Z,16.40
2022-09-23T07:23:17.515Z,16.60
2022-09-23T07:25:47.107Z,16.70
2022-09-23T07:28:17.659Z,16.70
2022-09-23T07:30:58.404Z,16.70
2022-09-23T07:33:33.700Z,16.60
2022-09-23T07:36:06.314Z,16.50
2022-09-23T07:38:34.698Z,16.60
2022-09-23T07:41:04.172Z,16.70
2022-09-23T07:43:32.847Z,16.90
2022-09-23T07:46:02.209Z,16.60
2022-09-23T07:48:34.721Z,16.60
2022-09-23T07:51:10.159Z,16.80
2022-09-23T07:53:40.695Z,16.80
2022-09-23T07:56:12.003Z,16.80
2022-09-23T07:58:46.932Z,16.50
2022-09-23T08:01:14.989Z,16.80
2022-09-23T08:03:54.231Z,16.90
2022-09-23T08:09:06.400Z,17.20
2022-09-23T08:11:41.832Z,17.20
2022-09-23T08:14:10.374Z,17.30
2022-09-23T08:16:38.935Z,17.40
2022-09-23T08:19:08.523Z,17.60
2022-09-23T08:21:39.601Z,17.60
2022-09-23T08:24:14.383Z,17.90
2022-09-23T08:26:45.533Z,17.80
2022-09-23T08:29:14.586Z,17.80
2022-09-23T08:31:45.372Z,17.70
2022-09-23T08:34:14.777Z,17.80
2022-09-23T08:36:45.739Z,18.00
2022-09-23T08:39:16.131Z,17.70
2022-09-23T08:41:59.104Z,17.50
2022-09-23T08:44:33.002Z,17.70
2022-09-23T08:47:12.799Z,17.90
2022-09-23T08:50:00.213Z,17.60
2022-09-23T08:52:36.773Z,17.50
2022-09-23T08:55:06.897Z,17.50
2022-09-23T08:57:57.603Z,17.70
2022-09-23T09:00:38.604Z,17.80
2022-09-23T09:03:24.719Z,17.90
2022-09-23T09:05:59.298Z,18.20
2022-09-23T09:08:40.038Z,18.20
2022-09-23T09:11:14.288Z,18.40
2022-09-23T09:13:54.625Z,18.10
2022-09-23T09:17:01.265Z,18.00
2022-09-23T09:19:56.492Z,18.10
2022-09-23T09:22:41.602Z,18.00
2022-09-23T09:25:24.093Z,17.70
2022-09-23T09:27:54.986Z,17.90
2022-09-23T09:30:26.243Z,17.90
2022-09-23T09:33:04.900Z,18.00
2022-09-23T09:35:41.750Z,18.20
2022-09-23T09:38:25.014Z,18.40
2022-09-23T09:41:03.175Z,18.40
2022-09-23T09:43:34.386Z,18.40
2022-09-23T09:46:13.154Z,18.30
2022-09-23T09:48:54.124Z,18.40
2022-09-23T09:51:23.547Z,18.40
2022-09-23T09:53:53.955Z,18.40
2022-09-23T09:56:33.685Z,18.60
2022-09-23T09:59:07.857Z,18.50
2022-09-23T10:01:38.624Z,18.50
2022-09-23T10:04:14.970Z,18.40
2022-09-23T10:06:43.227Z,18.50
2022-09-23T10:09:19.189Z,18.40
2022-09-23T10:12:11.462Z,18.50
2022-09-23T10:14:45.063Z,18.60
2022-09-23T10:17:21.325Z,18.80
2022-09-23T10:19:52.290Z,18.80
2022-09-23T10:22:25.022Z,19.00
2022-09-23T10:25:00.686Z,19.10
2022-09-23T10:27:31.367Z,19.10
2022-09-23T10:30:01.216Z,18.80
2022-09-23T10:32:33.151Z,18.90
2022-09-23T10:35:13.278Z,19.00
2022-09-23T10:37:45.372Z,18.90
2022-09-23T10:40:38.242Z,18.80
2022-09-23T10:43:48.587Z,18.90
2022-09-23T10:46:40.248Z,18.70
2022-09-23T10:49:43.643Z,18.90
2022-09-23T10:52:38.312Z,19.20
2022-09-23T10:55:30.607Z,19.20
2022-09-23T10:58:24.568Z,19.10
2022-09-23T11:01:12.443Z,19.40
2022-09-23T11:04:04.489Z,19.40
2022-09-23T11:06:44.579Z,19.50
2022-09-23T11:09:27.441Z,19.30
2022-09-23T11:12:08.292Z,19.60
2022-09-23T11:14:51.631Z,19.60
2022-09-23T11:17:34.277Z,19.60
2022-09-23T11:20:25.121Z,19.70
2022-09-23T11:23:24.911Z,19.40
2022-09-23T11:26:00.108Z,19.30
2022-09-23T11:29:00.508Z,19.60
2022-09-23T11:31:45.692Z,19.70
2022-09-23T11:34:37.439Z,19.50
2022-09-23T11:37:14.045Z,19.40
2022-09-23T11:39:47.130Z,19.60
2022-09-23T11:42:20.983Z,19.50
2022-09-23T11:44:56.187Z,19.60
2022-09-23T11:47:39.870Z,19.80
2022-09-23T11:50:18.755Z,19.90
2022-09-23T11:52:51.379Z,20.10
2022-09-23T11:55:23.882Z,20.40
2022-09-23T11:57:54.067Z,20.60
2022-09-23T12:00:26.909Z,20.70
2022-09-23T12:03:09.166Z,20.60
2022-09-23T12:05:43.338Z,20.70
2022-09-23T12:08:18.170Z,20.40
2022-09-23T12:11:00.266Z,20.30
2022-09-23T12:13:39.618Z,20.70
2022-09-23T12:16:35.862Z,20.80
2022-09-23T12:19:20.136Z,20.80
2022-09-23T12:22:01.948Z,20.80
2022-09-23T12:24:48.717Z,21.20
2022-09-23T12:27:26.065Z,21.30
2022-09-23T12:29:57.725Z,21.50
2022-09-23T12:32:29.844Z,21.50
2022-09-23T12:34:58.023Z,21.40
2022-09-23T12:37:38.690Z,21.30
2022-09-23T12:40:10.282Z,21.00
2022-09-23T12:42:44.707Z,20.80
2022-09-23T12:45:37.192Z,20.90
2022-09-23T12:48:28.482Z,21.00
2022-09-23T12:51:15.869Z,20.80
2022-09-23T12:53:59.032Z,20.70
2022-09-23T12:56:29.796Z,20.50
2022-09-23T12:59:13.031Z,20.60
2022-09-23T13:01:41.846Z,20.70
2022-09-23T13:04:57.388Z,20.60
2022-09-23T13:07:28.047Z,20.70
2022-09-23T13:10:02.511Z,20.60
2022-09-23T13:12:33.983Z,20.60
2022-09-23T13:15:08.539Z,20.70
2022-09-23T13:17:40.709Z,20.90
2022-09-23T13:20:36.434Z,20.70
2022-09-23T13:23:37.210Z,20.50
2022-09-23T13:26:15.059Z,20.40
2022-09-23T13:29:05.340Z,20.30
2022-09-23T13:34:20.480Z,20.60
2022-09-23T13:36:50.186Z,20.10
2022-09-23T13:39:25.769Z,20.10
2022-09-23T13:41:57.192Z,20.40
2022-09-23T13:44:25.415Z,20.10
2022-09-23T13:46:58.392Z,20.10
2022-09-23T13:49:29.168Z,19.80
2022-09-23T13:51:58.922Z,19.90
2022-09-23T13:54:32.396Z,19.80
2022-09-23T13:57:01.226Z,19.90
2022-09-23T13:59:38.323Z,19.80
2022-09-23T14:02:17.165Z,19.80
2022-09-23T14:04:45.900Z,19.70
2022-09-23T14:07:18.841Z,19.60
2022-09-23T14:09:51.836Z,19.50
2022-09-23T14:12:22.111Z,19.50
2022-09-23T14:14:54.466Z,19.40
2022-09-23T14:17:25.357Z,19.40
2022-09-23T14:19:53.346Z,19.50
2022-09-23T14:22:28.407Z,19.40
2022-09-23T14:24:58.409Z,19.50
2022-09-23T14:27:33.386Z,19.70
2022-09-23T14:30:03.987Z,19.40
2022-09-23T14:32:37.319Z,19.80
2022-09-23T14:35:19.547Z,19.80
2022-09-23T14:38:08.652Z,19.70
2022-09-23T14:40:38.829Z,19.70
2022-09-23T14:43:18.688Z,19.40
2022-09-23T14:45:50.736Z,19.40
2022-09-23T14:48:24.816Z,19.50
2022-09-23T14:50:57.012Z,19.60
2022-09-23T14:53:39.739Z,19.20
2022-09-23T14:56:19.843Z,19.30
2022-09-23T14:58:54.016Z,19.20
2022-09-23T15:01:35.169Z,19.00
2022-09-23T15:04:27.634Z,19.10
2022-09-23T15:06:58.700Z,19.30
2022-09-23T15:09:32.809Z,19.30
2022-09-23T15:12:02.867Z,19.10
2022-09-23T15:14:41.853Z,19.00
2022-09-23T15:17:33.035Z,19.10
2022-09-23T15:20:03.717Z,19.00
2022-09-23T15:22:35.183Z,18.90
2022-09-23T15:25:18.002Z,18.80
2022-09-23T15:27:58.255Z,18.90
2022-09-23T15:30:26.914Z,18.90
2022-09-23T15:32:54.800Z,19.00
2022-09-23T15:35:32.579Z,19.00
2022-09-23T15:38:03.200Z,19.00
2022-09-23T15:40:34.423Z,19.10
2022-09-23T15:43:11.008Z,18.90
2022-09-23T15:45:44.576Z,19.00
2022-09-23T15:48:14.797Z,19.20
2022-09-23T15:50:45.460Z,19.20
2022-09-23T15:53:19.107Z,19.20
2022-09-23T15:55:50.114Z,18.90
2022-09-23T15:58:18.013Z,19.00
2022-09-23T16:00:51.147Z,18.80
2022-09-23T16:03:28.955Z,18.80
2022-09-23T16:06:03.491Z,18.90
2022-09-23T16:08:32.762Z,19.20
2022-09-23T16:11:02.569Z,19.00
2022-09-23T16:13:32.508Z,19.00
2022-09-23T16:16:00.780Z,18.90
2022-09-23T16:18:28.614Z,19.00
2022-09-23T16:20:58.057Z,19.10
2022-09-23T16:23:35.356Z,19.10
2022-09-23T16:26:19.041Z,19.00
2022-09-23T16:28:49.163Z,19.00
2022-09-23T16:31:27.540Z,18.90
2022-09-23T16:33:55.455Z,18.90
2022-09-23T16:36:25.790Z,18.80
2022-09-23T16:38:58.134Z,18.80
2022-09-23T16:41:34.376Z,19.10
2022-09-23T16:44:20.602Z,19.30
2022-09-23T16:46:49.271Z,19.40
2022-09-23T16:49:17.973Z,19.50
2022-09-23T16:51:46.252Z,19.30
2022-09-23T16:54:14.245Z,19.50
2022-09-23T16:56:49.402Z,19.50
2022-09-23T16:59:18.149Z,19.40
2022-09-23T17:01:59.923Z,19.40
2022-09-23T17:04:28.639Z,19.30
2022-09-23T17:06:57.240Z,19.10
2022-09-23T17:09:28.101Z,19.10
2022-09-23T17:12:06.122Z,19.20
2022-09-23T17:14:34.532Z,19.20
2022-09-23T17:17:06.626Z,19.10
2022-09-23T17:19:35.597Z,19.20
2022-09-23T17:22:06.419Z,19.40
2022-09-23T17:24:34.227Z,19.50
2022-09-23T17:27:06.458Z,19.60
2022-09-23T17:29:34.273Z,19.70
2022-09-23T17:32:08.433Z,19.60
2022-09-23T17:34:39.020Z,19.60
2022-09-23T17:37:06.780Z,19.70
2022-09-23T17:39:34.601Z,19.70
2022-09-23T17:42:04.164Z,19.70
2022-09-23T17:44:33.821Z,19.50
2022-09-23T17:47:07.938Z,19.50
2022-09-23T17:49:39.307Z,19.60
2022-09-23T17:52:09.696Z,19.60
2022-09-23T17:54:39.629Z,19.60
2022-09-23T17:57:07.470Z,19.50
2022-09-23T17:59:36.651Z,19.60
2022-09-23T18:02:16.889Z,19.70
2022-09-23T18:04:49.890Z,19.60
2022-09-23T18:07:19.833Z,19.70
2022-09-23T18:09:50.229Z,19.60
2022-09-23T18:12:20.364Z,19.70
2022-09-23T18:14:55.417Z,19.70
2022-09-23T18:17:23.214Z,19.60
2022-09-23T18:19:51.148Z,19.50
2022-09-23T18:22:19.386Z,19.50
2022-09-23T18:24:47.198Z,19.40
2022-09-23T18:27:15.016Z,19.30
2022-09-23T18:29:42.836Z,18.80
2022-09-23T18:32:14.867Z,18.90
2022-09-23T18:34:42.677Z,18.80
2022-09-23T18:37:15.841Z,19.00
2022-09-23T18:39:45.460Z,18.50
2022-09-23T18:42:14.122Z,18.40
2022-09-23T18:44:41.970Z,18.70
2022-09-23T18:47:31.643Z,18.80
2022-09-23T18:50:20.341Z,18.90
2022-09-23T18:52:48.575Z,18.80
2022-09-23T18:55:16.572Z,18.40
2022-09-23T18:57:48.077Z,18.10
2022-09-23T19:00:18.709Z,18.00
2022-09-23T19:02:47.898Z,18.30
2022-09-23T19:05:15.810Z,18.30
2022-09-23T19:07:44.020Z,18.50
2022-09-23T19:10:11.904Z,18.60
2022-09-23T19:12:46.915Z,18.80
2022-09-23T19:15:14.850Z,18.90
2022-09-23T19:17:46.809Z,18.70
2022-09-23T19:20:15.263Z,18.80
2022-09-23T19:22:50.325Z,18.70
2022-09-23T19:25:21.106Z,18.80
2022-09-23T19:27:48.946Z,18.60
2022-09-23T19:30:19.796Z,18.70
2022-09-23T19:32:57.006Z,18.70
2022-09-23T19:35:25.268Z,18.90
2022-09-23T19:38:00.197Z,18.80
2022-09-23T19:40:29.491Z,18.70
2022-09-23T19:42:57.394Z,18.70
2022-09-23T19:45:29.408Z,18.80
2022-09-23T19:47:58.845Z,18.90
2022-09-23T19:50:34.486Z,18.80
2022-09-23T19:53:04.651Z,18.60
2022-09-23T19:55:35.712Z,18.30
2022-09-23T19:58:13.483Z,18.20
2022-09-23T20:00:41.758Z,18.10
2022-09-23T20:03:11.432Z,18.10
2022-09-23T20:05:47.273Z,18.20
2022-09-23T20:08:17.916Z,18.20
2022-09-23T20:10:46.695Z,18.40
2022-09-23T20:13:18.228Z,18.40
2022-09-23T20:15:54.016Z,18.20
2022-09-23T20:18:24.025Z,18.10
2022-09-23T20:20:55.350Z,17.90
2022-09-23T20:23:25.939Z,17.60
2022-09-23T20:26:14.360Z,17.60
2022-09-23T20:28:43.172Z,17.60
2022-09-23T20:31:11.802Z,17.70
2022-09-23T20:33:44.920Z,17.80
2022-09-23T20:36:14.092Z,17.80
2022-09-23T20:38:49.485Z,17.80
2022-09-23T20:41:18.133Z,17.90
2022-09-23T20:43:46.160Z,17.60
2022-09-23T20:46:15.161Z,17.80
2022-09-23T20:48:47.230Z,18.00
2022-09-23T20:51:15.092Z,18.10
2022-09-23T20:53:42.980Z,17.80
2022-09-23T20:56:13.959Z,17.80
2022-09-23T20:58:42.646Z,17.80
2022-09-23T21:01:11.564Z,17.90
2022-09-23T21:03:41.574Z,18.00
2022-09-23T21:06:16.985Z,17.80
2022-09-23T21:08:45.372Z,17.70
2022-09-23T21:11:15.341Z,17.50
2022-09-23T21:13:47.345Z,17.20
2022-09-23T21:16:16.951Z,17.30
2022-09-23T21:18:45.960Z,17.30
2022-09-23T21:21:19.988Z,17.40
2022-09-23T21:23:50.524Z,17.60
2022-09-23T21:26:23.121Z,17.90
2022-09-23T21:28:52.682Z,17.90
2022-09-23T21:31:25.773Z,18.10
2022-09-23T21:33:57.317Z,18.10
2022-09-23T21:36:28.075Z,18.10
2022-09-23T21:38:59.456Z,17.70
2022-09-23T21:41:27.253Z,17.60
2022-09-23T21:43:56.283Z,17.80
2022-09-23T21:46:24.958Z,17.60
2022-09-23T21:48:55.114Z,17.70
2022-09-23T21:51:25.712Z,17.70
2022-09-23T21:53:58.835Z,17.80
2022-09-23T21:56:28.752Z,17.70
2022-09-23T21:58:58.212Z,17.70
2022-09-23T22:01:33.102Z,17.80
2022-09-23T22:04:15.308Z,17.80
2022-09-23T22:06:43.924Z,17.90
2022-09-23T22:09:23.059Z,18.00
2022-09-23T22:12:08.088Z,17.90
2022-09-23T22:14:38.926Z,18.00
2022-09-23T22:17:10.277Z,18.20
2022-09-23T22:19:44.211Z,17.80
2022-09-23T22:22:18.487Z,17.80
2022-09-23T22:24:48.967Z,17.60
2022-09-23T22:27:20.900Z,17.50
2022-09-23T22:30:06.827Z,17.20
2022-09-23T22:32:52.937Z,17.30
2022-09-23T22:35:23.102Z,17.40
2022-09-23T22:37:52.939Z,17.40
2022-09-23T22:40:24.988Z,17.60
2022-09-23T22:42:54.955Z,17.80
2022-09-23T22:45:25.067Z,17.60
2022-09-23T22:48:00.846Z,17.80
2022-09-23T22:50:33.872Z,17.80
2022-09-23T22:53:04.436Z,17.90
2022-09-23T22:55:33.534Z,18.10
2022-09-23T22:58:27.562Z,17.90
2022-09-23T23:00:56.233Z,18.00
2022-09-23T23:03:26.575Z,18.10
2022-09-23T23:06:01.947Z,18.10
2022-09-23T23:08:32.648Z,18.10
2022-09-23T23:11:10.335Z,18.30
2022-09-23T23:13:41.861Z,18.40
2022-09-23T23:16:12.289Z,18.50
2022-09-23T23:18:44.980Z,18.50
2022-09-23T23:21:17.218Z,18.70
2022-09-23T23:23:46.811Z,18.70
2022-09-23T23:26:20.284Z,18.70
2022-09-23T23:28:50.095Z,18.80
2022-09-23T23:31:21.095Z,18.80
2022-09-23T23:33:49.776Z,18.60
2022-09-23T23:36:20.601Z,18.30
2022-09-23T23:38:52.774Z,18.40
2022-09-23T23:41:23.420Z,18.30
2022-09-23T23:43:57.187Z,18.20
2022-09-23T23:46:26.351Z,18.30
2022-09-23T23:48:55.451Z,18.30
2022-09-23T23:51:24.332Z,18.20
2022-09-23T23:53:53.542Z,18.30
2022-09-23T23:56:25.338Z,18.20
2022-09-23T23:58:55.343Z,18.20
